Obninsk, Russia
Current Conditions -  °F | °C
As of 3:30 PM on Saturday 01 Nov 2014 (Local Time) from UUWW Reporting Station
Broken Clouds Broken Clouds  
Wind Chill: 28°   Ceiling: 1300
Heat Index: 36°   Visibility: 6mi
Dew Point: 30°   Wind: 11mph
Humidity: 81%   Direction: 360°N
Pressure: 30.06"   Gusts: NA
Location:  55.1°N, 36.61°E
Report Text: UUWW 011230Z 36005MPS 9999 BKN013 02/M01 Q1018 06290050 TEMPO1500 SHSN
Loading
Personal Weather Stations






























Interactive Weather Map
Tropical Storm Tracking
New forecast layout! Learn more

10-Day Weather Forecast

Advertisements
Track Severe Weather on mobile